createdAt,value
2022-12-06T00:01:10.442Z,-7.36
2022-12-06T00:03:37.664Z,-7.30
2022-12-06T00:06:06.391Z,-7.30
2022-12-06T00:08:33.124Z,-7.30
2022-12-06T00:11:03.914Z,-7.27
2022-12-06T00:13:30.656Z,-7.25
2022-12-06T00:16:00.746Z,-7.25
2022-12-06T00:18:27.448Z,-7.23
2022-12-06T00:20:54.215Z,-7.21
2022-12-06T00:23:20.909Z,-7.19
2022-12-06T00:25:47.669Z,-7.17
2022-12-06T00:28:14.292Z,-7.17
2022-12-06T00:30:40.998Z,-7.15
2022-12-06T00:33:07.700Z,-7.16
2022-12-06T00:35:34.497Z,-7.18
2022-12-06T00:38:01.086Z,-7.17
2022-12-06T00:40:28.011Z,-7.18
2022-12-06T00:42:54.774Z,-7.18
2022-12-06T00:45:21.416Z,-7.22
2022-12-06T00:47:48.112Z,-7.21
2022-12-06T00:50:14.787Z,-7.21
2022-12-06T00:52:41.493Z,-7.21
2022-12-06T00:55:08.552Z,-7.23
2022-12-06T00:57:35.248Z,-7.23
2022-12-06T01:00:02.434Z,-7.23
2022-12-06T01:02:29.383Z,-7.22
2022-12-06T01:04:56.293Z,-7.22
2022-12-06T01:07:23.135Z,-7.22
2022-12-06T01:09:49.776Z,-7.25
2022-12-06T01:12:16.560Z,-7.28
2022-12-06T01:14:43.241Z,-7.29
2022-12-06T01:17:10.013Z,-7.33
2022-12-06T01:19:36.818Z,-7.35
2022-12-06T01:22:03.502Z,-7.36
2022-12-06T01:24:30.261Z,-7.36
2022-12-06T01:26:56.925Z,-7.36
2022-12-06T01:29:23.651Z,-7.39
2022-12-06T01:31:50.284Z,-7.40
2022-12-06T01:34:17.145Z,-7.42
2022-12-06T01:36:44.175Z,-7.44
2022-12-06T01:39:11.041Z,-7.44
2022-12-06T01:41:38.406Z,-7.45
2022-12-06T01:44:05.240Z,-7.48
2022-12-06T01:46:38.898Z,-7.50
2022-12-06T01:49:10.461Z,-7.49
2022-12-06T01:51:37.396Z,-7.48
2022-12-06T01:54:05.022Z,-7.48
2022-12-06T01:56:31.736Z,-7.47
2022-12-06T01:58:58.927Z,-7.45
2022-12-06T02:01:26.379Z,-7.43
2022-12-06T02:03:55.092Z,-7.42
2022-12-06T02:06:21.816Z,-7.40
2022-12-06T02:08:48.411Z,-7.39
2022-12-06T02:11:15.119Z,-7.39
2022-12-06T02:13:41.857Z,-7.39
2022-12-06T02:16:27.518Z,-7.39
2022-12-06T02:18:56.056Z,-7.40
2022-12-06T02:21:27.175Z,-7.42
2022-12-06T02:24:24.413Z,-7.44
2022-12-06T02:27:52.907Z,-7.43
2022-12-06T02:30:43.994Z,-7.44
2022-12-06T02:33:17.610Z,-7.45
2022-12-06T02:35:55.054Z,-7.45
2022-12-06T02:38:46.363Z,-7.45
2022-12-06T02:41:44.439Z,-7.45
2022-12-06T02:44:16.239Z,-7.49
2022-12-06T02:46:43.944Z,-7.51
2022-12-06T02:49:10.835Z,-7.58
2022-12-06T02:51:37.630Z,-7.57
2022-12-06T02:54:05.416Z,-7.58
2022-12-06T02:56:32.905Z,-7.59
2022-12-06T02:58:59.727Z,-7.64
2022-12-06T03:01:45.635Z,-7.63
2022-12-06T03:04:49.889Z,-7.65
2022-12-06T03:07:28.840Z,-7.66
2022-12-06T03:10:05.963Z,-7.69
2022-12-06T03:13:00.344Z,-7.71
2022-12-06T03:15:34.279Z,-7.73
2022-12-06T03:18:07.934Z,-7.75
2022-12-06T03:20:46.352Z,-7.77
2022-12-06T03:23:23.751Z,-7.75
2022-12-06T03:25:50.438Z,-7.75
2022-12-06T03:28:17.292Z,-7.77
2022-12-06T03:30:46.615Z,-7.77
2022-12-06T03:33:13.981Z,-7.77
2022-12-06T03:35:40.830Z,-7.79
2022-12-06T03:38:12.356Z,-7.80
2022-12-06T03:40:39.907Z,-7.80
2022-12-06T03:43:06.686Z,-7.83
2022-12-06T03:45:36.444Z,-7.79
2022-12-06T03:48:08.190Z,-7.80
2022-12-06T03:50:38.923Z,-7.81
2022-12-06T03:53:05.699Z,-7.82
2022-12-06T03:55:32.301Z,-7.85
2022-12-06T03:57:59.019Z,-7.86
2022-12-06T04:00:25.684Z,-7.88
2022-12-06T04:02:52.377Z,-7.89
2022-12-06T04:05:19.231Z,-7.91
2022-12-06T04:07:45.924Z,-7.90
2022-12-06T04:10:12.700Z,-7.91
2022-12-06T04:12:58.252Z,-7.92
2022-12-06T04:15:24.955Z,-7.91
2022-12-06T04:18:10.532Z,-7.93
2022-12-06T04:21:03.371Z,-7.93
2022-12-06T04:23:31.220Z,-7.96
2022-12-06T04:25:58.098Z,-7.96
2022-12-06T04:28:43.501Z,-7.96
2022-12-06T04:31:29.214Z,-7.97
2022-12-06T04:34:14.839Z,-7.98
2022-12-06T04:37:00.283Z,-7.98
2022-12-06T04:39:27.092Z,-8.00
2022-12-06T04:42:12.842Z,-8.02
2022-12-06T04:44:39.685Z,-8.03
2022-12-06T04:47:06.679Z,-8.05
2022-12-06T04:49:33.812Z,-8.07
2022-12-06T04:52:00.742Z,-8.07
2022-12-06T04:54:29.876Z,-8.13
2022-12-06T04:56:57.628Z,-8.12
2022-12-06T04:59:25.267Z,-8.14
2022-12-06T05:01:52.544Z,-8.15
2022-12-06T05:04:19.388Z,-8.16
2022-12-06T05:06:46.112Z,-8.16
2022-12-06T05:09:12.805Z,-8.15
2022-12-06T05:11:39.626Z,-8.17
2022-12-06T05:14:06.453Z,-8.20
2022-12-06T05:16:33.157Z,-8.19
2022-12-06T05:18:59.927Z,-8.19
2022-12-06T05:21:26.702Z,-8.20
2022-12-06T05:23:56.753Z,-8.20
2022-12-06T05:26:25.415Z,-8.20
2022-12-06T05:28:52.217Z,-8.21
2022-12-06T05:31:18.941Z,-8.22
2022-12-06T05:33:46.125Z,-8.23
2022-12-06T05:36:23.523Z,-8.23
2022-12-06T05:38:51.760Z,-8.22
2022-12-06T05:41:20.124Z,-8.21
2022-12-06T05:43:47.110Z,-8.22
2022-12-06T05:46:14.138Z,-8.22
2022-12-06T05:48:40.948Z,-8.25
2022-12-06T05:51:07.643Z,-8.19
2022-12-06T05:53:34.455Z,-8.15
2022-12-06T05:56:08.687Z,-8.13
2022-12-06T05:58:35.513Z,-8.12
2022-12-06T06:01:02.295Z,-8.10
2022-12-06T06:03:29.310Z,-8.12
2022-12-06T06:05:58.255Z,-8.05
2022-12-06T06:08:25.184Z,-8.01
2022-12-06T06:10:51.926Z,-7.96
2022-12-06T06:13:18.576Z,-7.92
2022-12-06T06:15:45.374Z,-7.89
2022-12-06T06:18:12.029Z,-7.85
2022-12-06T06:20:38.889Z,-7.81
2022-12-06T06:23:05.617Z,-7.77
2022-12-06T06:25:32.378Z,-7.74
2022-12-06T06:27:59.116Z,-7.73
2022-12-06T06:30:25.824Z,-7.68
2022-12-06T06:32:52.555Z,-7.64
2022-12-06T06:35:19.242Z,-7.60
2022-12-06T06:37:46.103Z,-7.55
2022-12-06T06:40:12.716Z,-7.52
2022-12-06T06:42:39.556Z,-7.47
2022-12-06T06:45:09.589Z,-7.43
2022-12-06T06:47:36.419Z,-7.38
2022-12-06T06:50:03.343Z,-7.35
2022-12-06T06:52:30.323Z,-7.31
2022-12-06T06:54:57.037Z,-7.29
2022-12-06T06:57:23.775Z,-7.29
2022-12-06T06:59:50.561Z,-7.28
2022-12-06T07:02:17.885Z,-7.26
2022-12-06T07:04:45.024Z,-7.23
2022-12-06T07:07:16.459Z,-7.20
2022-12-06T07:09:48.117Z,-7.15
2022-12-06T07:12:15.548Z,-7.11
2022-12-06T07:14:42.332Z,-7.08
2022-12-06T07:17:09.048Z,-7.03
2022-12-06T07:19:35.866Z,-6.97
2022-12-06T07:22:02.569Z,-6.93
2022-12-06T07:24:29.301Z,-6.88
2022-12-06T07:26:57.417Z,-6.81
2022-12-06T07:29:24.108Z,-6.76
2022-12-06T07:31:50.815Z,-6.69
2022-12-06T07:34:17.549Z,-6.63
2022-12-06T07:36:44.249Z,-6.58
2022-12-06T07:39:14.794Z,-6.53
2022-12-06T07:42:00.562Z,-6.48
2022-12-06T07:45:01.886Z,-6.43
2022-12-06T07:47:36.878Z,-6.39
2022-12-06T07:50:04.318Z,-6.35
2022-12-06T07:52:34.713Z,-6.31
2022-12-06T07:55:01.606Z,-6.28
2022-12-06T07:57:28.277Z,-6.25
2022-12-06T07:59:55.671Z,-6.21
2022-12-06T08:02:25.716Z,-6.20
2022-12-06T08:04:53.088Z,-6.17
2022-12-06T08:07:20.501Z,-6.14
2022-12-06T08:09:47.666Z,-6.10
2022-12-06T08:12:14.663Z,-6.06
2022-12-06T08:14:41.557Z,-6.01
2022-12-06T08:17:08.269Z,-5.96
2022-12-06T08:19:34.995Z,-5.91
2022-12-06T08:22:01.696Z,-5.89
2022-12-06T08:24:28.403Z,-5.84
2022-12-06T08:26:55.335Z,-5.81
2022-12-06T08:29:22.425Z,-5.77
2022-12-06T08:31:49.232Z,-5.74
2022-12-06T08:34:16.358Z,-5.71
2022-12-06T08:36:43.190Z,-5.65
2022-12-06T08:39:10.388Z,-5.61
2022-12-06T08:41:55.294Z,-5.57
2022-12-06T08:44:22.083Z,-5.52
2022-12-06T08:46:48.942Z,-5.45
2022-12-06T08:49:16.587Z,-5.37
2022-12-06T08:51:43.311Z,-5.30
2022-12-06T08:54:13.096Z,-5.24
2022-12-06T08:56:39.920Z,-5.21
2022-12-06T08:59:07.068Z,-5.19
2022-12-06T09:01:37.870Z,-5.22
2022-12-06T09:04:06.534Z,-5.17
2022-12-06T09:06:33.392Z,-5.15
2022-12-06T09:09:00.102Z,-5.12
2022-12-06T09:11:27.032Z,-5.12
2022-12-06T09:13:53.698Z,-5.05
2022-12-06T09:16:22.157Z,-5.04
2022-12-06T09:18:49.098Z,-5.05
2022-12-06T09:21:16.821Z,-5.11
2022-12-06T09:23:43.712Z,-5.13
2022-12-06T09:26:10.392Z,-5.13
2022-12-06T09:28:38.850Z,-5.11
2022-12-06T09:31:06.285Z,-5.09
2022-12-06T09:33:33.438Z,-5.09
2022-12-06T09:36:01.995Z,-5.11
2022-12-06T09:38:29.599Z,-5.12
2022-12-06T09:41:18.376Z,-5.10
2022-12-06T09:44:12.763Z,-5.08
2022-12-06T09:47:17.225Z,-5.10
2022-12-06T09:50:15.017Z,-5.08
2022-12-06T09:52:52.152Z,-5.13
2022-12-06T09:55:44.150Z,-5.08
2022-12-06T09:58:23.174Z,-5.04
2022-12-06T10:01:03.922Z,-5.02
2022-12-06T10:03:35.239Z,-5.01
2022-12-06T10:06:03.977Z,-4.98
2022-12-06T10:08:52.616Z,-4.93
2022-12-06T10:11:42.161Z,-4.87
2022-12-06T10:14:30.833Z,-4.84
2022-12-06T10:17:03.841Z,-4.82
2022-12-06T10:19:52.824Z,-4.82
2022-12-06T10:22:47.180Z,-4.83
2022-12-06T10:27:39.885Z,-4.81
2022-12-06T10:30:14.150Z,-4.84
2022-12-06T10:32:51.932Z,-4.85
2022-12-06T10:35:24.651Z,-4.88
2022-12-06T17:25:25.944Z,-5.03
2022-12-06T17:27:52.811Z,-4.86
2022-12-06T17:30:20.164Z,-4.81
2022-12-06T17:32:47.218Z,-4.85
2022-12-06T17:35:14.271Z,-4.74
2022-12-06T17:37:41.016Z,-4.70
2022-12-06T17:40:08.299Z,-4.66
2022-12-06T17:42:53.668Z,-4.63
2022-12-06T17:45:24.648Z,-4.59
2022-12-06T17:47:51.741Z,-4.57
2022-12-06T17:50:18.572Z,-4.56
2022-12-06T17:52:45.329Z,-4.57
2022-12-06T17:55:13.092Z,-4.57
2022-12-06T17:57:39.837Z,-4.56
2022-12-06T18:00:07.248Z,-4.56
2022-12-06T18:02:34.038Z,-4.55
2022-12-06T18:05:01.265Z,-4.56
2022-12-06T18:07:28.362Z,-4.58
2022-12-06T18:09:55.052Z,-4.59
2022-12-06T18:12:21.800Z,-4.60
2022-12-06T18:14:48.502Z,-4.60
2022-12-06T18:17:15.216Z,-4.61
2022-12-06T18:19:43.665Z,-4.61
2022-12-06T18:22:10.387Z,-4.58
2022-12-06T18:24:37.226Z,-4.57
2022-12-06T18:27:05.072Z,-4.55
2022-12-06T18:29:31.892Z,-4.57
2022-12-06T18:31:58.662Z,-4.51
2022-12-06T18:34:25.536Z,-4.51
2022-12-06T18:36:52.325Z,-4.52
2022-12-06T18:39:24.375Z,-4.51
2022-12-06T18:41:52.481Z,-4.52
2022-12-06T18:44:19.304Z,-4.52
2022-12-06T18:46:45.984Z,-4.52
2022-12-06T18:49:12.755Z,-4.52
2022-12-06T18:51:39.545Z,-4.53
2022-12-06T18:54:06.378Z,-4.51
2022-12-06T18:56:33.268Z,-4.51
2022-12-06T18:59:00.448Z,-4.49
2022-12-06T19:01:34.920Z,-4.47
2022-12-06T19:04:03.342Z,-4.45
2022-12-06T19:06:32.307Z,-4.42
2022-12-06T19:09:01.081Z,-4.40
2022-12-06T19:11:27.857Z,-4.40
2022-12-06T19:13:55.691Z,-4.41
2022-12-06T19:16:26.669Z,-4.41
2022-12-06T19:18:54.704Z,-4.43
2022-12-06T19:21:21.472Z,-4.47
2022-12-06T19:23:48.425Z,-4.50
2022-12-06T19:26:15.054Z,-4.51
2022-12-06T19:28:41.849Z,-4.52
2022-12-06T19:31:09.120Z,-4.53
2022-12-06T19:33:38.322Z,-4.54
2022-12-06T19:36:07.052Z,-4.58
2022-12-06T19:38:33.860Z,-4.56
2022-12-06T19:41:04.218Z,-4.58
2022-12-06T19:43:49.496Z,-4.60
2022-12-06T19:46:26.044Z,-4.59
2022-12-06T19:48:53.691Z,-4.59
2022-12-06T19:51:20.461Z,-4.58
2022-12-06T19:53:47.063Z,-4.56
2022-12-06T19:56:14.953Z,-4.54
2022-12-06T19:58:41.730Z,-4.52
2022-12-06T20:01:09.322Z,-4.51
2022-12-06T20:03:36.267Z,-4.52
2022-12-06T20:06:08.280Z,-4.52
2022-12-06T20:08:35.673Z,-4.52
2022-12-06T20:11:03.644Z,-4.51
2022-12-06T20:13:30.440Z,-4.49
2022-12-06T20:16:01.076Z,-4.49
2022-12-06T20:18:29.001Z,-4.47
2022-12-06T20:20:55.824Z,-4.46
2022-12-06T20:23:22.550Z,-4.45
2022-12-06T20:25:49.312Z,-4.46
2022-12-06T20:28:16.187Z,-4.46
2022-12-06T20:30:42.875Z,-4.46
2022-12-06T20:33:09.625Z,-4.45
2022-12-06T20:35:37.174Z,-4.45
2022-12-06T20:38:03.926Z,-4.44
2022-12-06T20:40:31.753Z,-4.42
2022-12-06T20:42:58.739Z,-4.43
2022-12-06T20:45:25.536Z,-4.45
2022-12-06T20:47:52.178Z,-4.45
2022-12-06T20:50:18.876Z,-4.47
2022-12-06T20:52:45.625Z,-4.51
2022-12-06T20:55:12.375Z,-4.55
2022-12-06T20:57:39.145Z,-4.59
2022-12-06T21:00:07.831Z,-4.62
2022-12-06T21:02:34.952Z,-4.63
2022-12-06T21:05:01.758Z,-4.64
2022-12-06T21:07:28.447Z,-4.65
2022-12-06T21:09:55.264Z,-4.66
2022-12-06T21:12:22.487Z,-4.67
2022-12-06T21:14:49.192Z,-4.67
2022-12-06T21:17:15.908Z,-4.66
2022-12-06T21:19:42.940Z,-4.63
2022-12-06T21:22:09.856Z,-4.60
2022-12-06T21:24:36.583Z,-4.58
2022-12-06T21:27:03.303Z,-4.57
2022-12-06T21:29:31.169Z,-4.58
2022-12-06T21:32:00.664Z,-4.58
2022-12-06T21:34:27.415Z,-4.56
2022-12-06T21:36:54.128Z,-4.56
2022-12-06T21:39:20.858Z,-4.54
2022-12-06T21:41:47.545Z,-4.53
2022-12-06T21:44:14.249Z,-4.51
2022-12-06T21:46:41.056Z,-4.48
2022-12-06T21:49:07.873Z,-4.44
2022-12-06T21:51:34.570Z,-4.40
2022-12-06T21:54:01.552Z,-4.36
2022-12-06T21:56:29.284Z,-4.34
2022-12-06T21:58:56.121Z,-4.32
2022-12-06T22:01:24.640Z,-4.35
